Time;durP1;ratioP1;P1;durP2;ratioP2;P2;SDS_P1;SDS_P2;PMS_P1;PMS_P2;Temp;Humidity;BMP_temperature;BMP_pressure;BME280_temperature;BME280_humidity;BME280_pressure;Samples;Min_cycle;Max_cycle;Signal;HPM_P1;HPM_P2
2023/08/15 00:00:15;;;;;;;4.35;2.60;;;;;;;27.50;32.78;98827.78;4984784;28;20434;-75
2023/08/15 00:02:41;;;;;;;7.25;2.70;;;;;;;27.55;33.24;98835.94;4968154;28;20048;-75
2023/08/15 00:05:07;;;;;;;4.28;2.75;;;;;;;27.57;32.88;98839.22;4972251;28;20556;-75
2023/08/15 00:07:32;;;;;;;3.35;2.53;;;;;;;27.55;33.15;98833.25;4963703;28;20425;-75
2023/08/15 00:09:58;;;;;;;6.05;3.25;;;;;;;27.56;33.19;98834.91;4958840;28;20391;-75
2023/08/15 00:12:23;;;;;;;3.55;2.70;;;;;;;27.61;33.09;98845.78;4942326;28;20192;-75
2023/08/15 00:14:49;;;;;;;5.32;2.70;;;;;;;27.61;33.10;98842.25;4957503;28;20042;-75
2023/08/15 00:17:15;;;;;;;4.38;2.90;;;;;;;27.56;33.17;98844.78;4974858;28;20053;-75
2023/08/15 00:19:40;;;;;;;5.43;2.72;;;;;;;27.56;33.27;98847.47;4958602;28;20049;-75
2023/08/15 00:22:06;;;;;;;5.55;3.10;;;;;;;27.55;33.35;98835.94;4958263;28;20576;-75
2023/08/15 00:24:31;;;;;;;5.82;3.10;;;;;;;27.58;33.55;98830.13;4942327;28;20042;-75
2023/08/15 00:26:57;;;;;;;5.32;3.05;;;;;;;27.59;33.63;98836.31;4973659;28;20426;-75
2023/08/15 00:29:22;;;;;;;4.97;2.53;;;;;;;27.58;33.39;98827.44;4974049;28;20501;-74
2023/08/15 00:31:48;;;;;;;3.95;2.90;;;;;;;27.61;33.83;98826.16;4975630;28;20086;-75
2023/08/15 00:34:13;;;;;;;5.43;2.78;;;;;;;27.55;33.95;98825.22;4959267;28;20082;-75
2023/08/15 00:36:39;;;;;;;5.50;2.92;;;;;;;27.50;33.86;98816.19;4990662;28;20522;-75
2023/08/15 00:39:04;;;;;;;6.85;3.03;;;;;;;27.51;34.19;98817.84;4942667;28;20034;-75
2023/08/15 00:41:30;;;;;;;4.85;3.08;;;;;;;27.51;33.99;98821.34;4992527;28;20118;-76
2023/08/15 00:43:56;;;;;;;4.82;2.85;;;;;;;27.51;34.18;98823.22;4983056;28;20069;-75
2023/08/15 00:46:22;;;;;;;3.70;2.92;;;;;;;27.48;34.41;98815.63;4978027;28;20065;-76
2023/08/15 00:48:48;;;;;;;4.07;2.88;;;;;;;27.50;34.26;98821.56;4978749;28;20073;-74
2023/08/15 00:51:13;;;;;;;5.75;3.10;;;;;;;27.52;34.50;98819.50;4982268;28;20042;-75
2023/08/15 00:53:39;;;;;;;4.55;2.80;;;;;;;27.54;34.43;98818.22;4942491;28;20046;-74
2023/08/15 00:56:04;;;;;;;6.18;3.22;;;;;;;27.54;34.41;98809.34;4974890;28;20514;-75
2023/08/15 00:58:30;;;;;;;3.65;2.80;;;;;;;27.56;34.67;98805.41;4942364;28;20046;-74
2023/08/15 01:00:55;;;;;;;6.53;2.88;;;;;;;27.59;34.57;98798.78;4975312;28;20057;-74
2023/08/15 01:03:21;;;;;;;5.20;3.35;;;;;;;27.58;34.69;98803.31;4942664;28;20070;-74
2023/08/15 01:05:47;;;;;;;4.97;3.05;;;;;;;27.58;34.94;98803.31;4942865;28;20049;-75
2023/08/15 01:08:12;;;;;;;7.47;3.30;;;;;;;27.59;34.94;98804.94;4967214;28;20071;-74
2023/08/15 01:10:38;;;;;;;3.72;2.65;;;;;;;27.61;34.79;98800.19;4994191;28;20069;-74
2023/08/15 01:13:42;;;;;;;5.55;3.05;;;;;;;27.57;35.18;98804.34;4977954;28;20030;-74
2023/08/15 01:16:13;;;;;;;7.70;3.30;;;;;;;27.57;34.99;98801.69;4998368;28;20041;-74
2023/08/15 01:18:41;;;;;;;4.65;3.28;;;;;;;27.60;34.71;98806.59;4961416;28;20583;-74
2023/08/15 01:21:07;;;;;;;6.35;3.00;;;;;;;27.60;34.91;98800.41;4994247;28;20045;-75
2023/08/15 01:23:41;;;;;;;5.57;3.05;;;;;;;27.62;34.97;98812.53;4977875;28;20038;-74
2023/08/15 01:26:07;;;;;;;8.35;3.28;;;;;;;27.60;35.03;98819.19;5011869;28;20579;-74
2023/08/15 01:28:32;;;;;;;6.25;3.03;;;;;;;27.60;35.02;98808.47;5011546;28;20054;-74
2023/08/15 01:31:27;;;;;;;5.75;3.30;;;;;;;27.56;35.25;98802.75;4993710;28;20089;-74
2023/08/15 01:33:58;;;;;;;6.88;3.08;;;;;;;27.52;35.07;98811.47;4912727;29;20088;-74
2023/08/15 01:36:26;;;;;;;9.90;3.40;;;;;;;27.48;35.37;98810.25;4897118;29;20040;-74
2023/08/15 01:38:54;;;;;;;7.63;3.20;;;;;;;27.48;35.54;98811.06;4912626;29;20558;-74
2023/08/15 01:41:20;;;;;;;7.93;2.88;;;;;;;27.45;36.53;98808.84;4881358;29;20496;-74
2023/08/15 01:43:46;;;;;;;6.38;3.08;;;;;;;27.39;38.06;98793.66;4897006;29;20048;-75
2023/08/15 01:46:12;;;;;;;6.40;3.10;;;;;;;27.30;39.63;98806.53;4895650;29;20496;-74
2023/08/15 01:48:41;;;;;;;5.65;3.00;;;;;;;27.26;40.20;98811.53;4896073;29;20040;-74
2023/08/15 01:51:07;;;;;;;5.72;3.30;;;;;;;27.14;40.13;98812.50;4881285;29;20423;-75
2023/08/15 01:53:33;;;;;;;5.55;3.15;;;;;;;27.11;40.36;98805.72;4912481;29;20037;-74
2023/08/15 01:55:58;;;;;;;6.18;3.42;;;;;;;27.11;40.37;98804.91;4896819;29;20055;-74
2023/08/15 01:58:24;;;;;;;4.78;2.95;;;;;;;27.01;40.26;98798.19;4912481;29;20560;-74
2023/08/15 02:00:49;;;;;;;4.28;3.03;;;;;;;27.03;40.54;98793.41;4880896;29;20044;-74
2023/08/15 02:03:15;;;;;;;7.45;3.33;;;;;;;26.97;40.66;98797.00;4912709;29;20112;-74
2023/08/15 02:05:40;;;;;;;5.53;2.92;;;;;;;26.93;40.59;98785.09;4891746;29;20127;-74
2023/08/15 02:08:06;;;;;;;3.75;2.70;;;;;;;26.90;40.43;98781.00;4878050;29;20047;-74
2023/08/15 02:10:31;;;;;;;5.30;3.17;;;;;;;26.87;39.93;98792.16;4920782;28;20042;-74
2023/08/15 02:12:57;;;;;;;4.53;2.78;;;;;;;26.88;39.84;98804.50;4941037;28;20034;-74
2023/08/15 02:15:22;;;;;;;4.90;3.05;;;;;;;26.85;39.72;98798.75;4941581;28;20098;-74
2023/08/15 02:17:48;;;;;;;5.60;3.17;;;;;;;26.84;39.57;98808.66;4957852;28;20038;-74
2023/08/15 02:20:13;;;;;;;6.05;3.30;;;;;;;26.80;39.62;98801.28;4974146;28;20132;-73
2023/08/15 02:22:39;;;;;;;5.43;3.35;;;;;;;26.77;39.85;98797.19;4956771;28;20473;-74
2023/08/15 02:25:04;;;;;;;4.57;2.95;;;;;;;26.81;39.57;98790.34;4957903;28;20425;-74
2023/08/15 02:27:30;;;;;;;8.18;3.03;;;;;;;26.82;39.20;98799.19;4974304;28;20035;-74
2023/08/15 02:29:56;;;;;;;3.88;3.00;;;;;;;26.82;39.17;98789.31;4973817;28;20070;-74
2023/08/15 02:32:21;;;;;;;6.97;2.92;;;;;;;26.86;38.66;98785.16;4973951;28;20105;-74
2023/08/15 02:34:47;;;;;;;3.75;2.65;;;;;;;26.83;38.47;98801.66;4973951;28;20035;-75
2023/08/15 02:37:12;;;;;;;4.05;2.90;;;;;;;26.87;38.42;98812.75;4957946;28;20078;-74
2023/08/15 02:39:38;;;;;;;3.60;2.70;;;;;;;26.88;38.40;98812.53;4991077;28;20490;-74
2023/08/15 02:42:03;;;;;;;3.65;2.58;;;;;;;26.87;38.61;98802.88;4973750;28;20050;-74
2023/08/15 02:44:29;;;;;;;6.07;3.08;;;;;;;26.87;38.15;98807.41;4973795;28;20034;-74
2023/08/15 02:46:54;;;;;;;4.10;3.13;;;;;;;26.88;38.25;98793.81;4957655;28;20097;-74
2023/08/15 02:49:20;;;;;;;6.13;2.90;;;;;;;26.95;38.13;98803.63;4973713;28;20049;-74
2023/08/15 02:51:45;;;;;;;4.60;2.90;;;;;;;26.97;37.93;98806.91;4969625;28;20116;-74
2023/08/15 02:54:10;;;;;;;4.05;2.92;;;;;;;26.97;37.61;98806.91;4992935;28;20061;-74
2023/08/15 02:56:36;;;;;;;4.22;2.90;;;;;;;27.01;37.43;98813.44;4976942;28;20042;-74
2023/08/15 02:59:02;;;;;;;12.60;3.30;;;;;;;27.02;38.19;98804.34;5010593;28;20038;-74
2023/08/15 03:01:27;;;;;;;6.20;3.00;;;;;;;27.13;38.28;98808.97;4996429;28;20129;-74
2023/08/15 03:03:53;;;;;;;6.75;2.63;;;;;;;27.17;38.34;98804.81;4980466;28;20508;-73
2023/08/15 03:06:19;;;;;;;12.60;3.15;;;;;;;27.26;38.35;98802.66;4996675;28;20136;-73
2023/08/15 03:08:45;;;;;;;8.02;2.88;;;;;;;27.32;38.46;98809.00;4996465;28;20044;-74
2023/08/15 03:11:11;;;;;;;5.20;2.85;;;;;;;27.36;39.23;98811.03;4984787;28;20556;-78
2023/08/15 03:13:36;;;;;;;8.48;3.22;;;;;;;27.42;39.56;98815.47;4960764;28;20046;-77
2023/08/15 03:16:02;;;;;;;5.75;3.08;;;;;;;27.51;40.10;98824.03;4960675;28;20082;-79
2023/08/15 03:18:27;;;;;;;6.55;2.97;;;;;;;27.56;40.37;98828.72;4960988;28;20030;-79
2023/08/15 03:21:03;;;;;;;9.90;3.08;;;;;;;27.55;39.83;98814.50;4961302;28;20053;-74
2023/08/15 03:23:29;;;;;;;5.50;2.92;;;;;;;27.58;39.95;98813.25;4994230;28;20114;-75
2023/08/15 03:25:55;;;;;;;4.53;2.55;;;;;;;27.57;39.85;98811.59;4983480;28;20056;-77
2023/08/15 03:28:21;;;;;;;4.80;2.90;;;;;;;27.59;39.89;98812.16;4979831;28;20030;-74
2023/08/15 03:30:46;;;;;;;7.78;2.90;;;;;;;27.59;39.37;98809.50;5012044;28;20058;-75
2023/08/15 03:33:12;;;;;;;8.00;3.00;;;;;;;27.61;39.49;98812.75;4980464;28;20046;-73
2023/08/15 03:35:49;;;;;;;9.90;3.05;;;;;;;27.65;39.59;98813.97;4995795;28;20037;-74
2023/08/15 03:38:21;;;;;;;6.80;2.70;;;;;;;27.64;39.42;98800.78;4996854;28;20041;-74
2023/08/15 03:40:47;;;;;;;5.95;2.90;;;;;;;27.66;39.32;98812.91;4996274;28;20037;-75
2023/08/15 03:43:13;;;;;;;6.18;3.13;;;;;;;27.68;38.96;98818.88;4996648;28;20382;-74
2023/08/15 03:45:39;;;;;;;6.22;2.83;;;;;;;27.66;38.89;98809.41;5013804;28;20128;-74
2023/08/15 03:48:08;;;;;;;5.50;2.53;;;;;;;27.68;39.02;98812.69;4995240;28;20052;-74
2023/08/15 03:50:37;;;;;;;4.88;3.03;;;;;;;27.72;39.03;98819.22;4996592;28;20417;-74
2023/08/15 03:53:03;;;;;;;6.47;3.00;;;;;;;27.72;38.79;98814.69;4996531;28;20517;-74
2023/08/15 03:55:28;;;;;;;4.88;2.63;;;;;;;27.76;38.69;98817.75;4995162;28;20045;-75
2023/08/15 03:57:54;;;;;;;4.72;2.78;;;;;;;27.79;38.63;98815.41;5013045;28;20069;-73
2023/08/15 04:00:20;;;;;;;5.38;2.80;;;;;;;27.82;38.59;98824.88;4995754;28;20045;-74
2023/08/15 04:02:46;;;;;;;4.20;2.47;;;;;;;27.83;38.59;98817.63;4985569;28;20042;-73
2023/08/15 04:05:11;;;;;;;3.97;2.53;;;;;;;27.90;38.52;98819.19;4980123;28;20048;-75
2023/08/15 04:07:38;;;;;;;4.20;2.78;;;;;;;27.96;38.23;98818.31;4979441;28;20034;-74
2023/08/15 04:10:03;;;;;;;4.85;2.75;;;;;;;28.05;37.95;98820.66;4979843;28;20037;-75
2023/08/15 04:12:29;;;;;;;6.00;2.47;;;;;;;28.15;37.77;98827.09;4994721;28;20545;-76
2023/08/15 04:14:54;;;;;;;4.32;2.90;;;;;;;28.25;37.44;98817.69;5013740;28;20034;-74
2023/08/15 04:17:20;;;;;;;9.30;2.95;;;;;;;28.28;37.27;98823.41;4979666;28;20030;-76
2023/08/15 04:19:46;;;;;;;5.90;2.83;;;;;;;28.27;37.29;98819.06;4995262;28;20057;-76
2023/08/15 04:22:11;;;;;;;7.55;2.92;;;;;;;28.28;37.13;98820.72;4979179;28;20073;-75
2023/08/15 04:24:37;;;;;;;4.78;2.95;;;;;;;28.29;37.06;98821.53;4994594;28;20073;-76
2023/08/15 04:27:02;;;;;;;8.27;3.13;;;;;;;28.21;37.13;98811.13;4963576;28;20082;-76
2023/08/15 04:29:28;;;;;;;4.50;2.80;;;;;;;28.32;37.00;98807.66;4979080;28;20100;-76
2023/08/15 04:31:53;;;;;;;7.68;2.70;;;;;;;28.29;37.26;98806.25;4979538;28;20048;-76
2023/08/15 04:34:19;;;;;;;6.05;2.88;;;;;;;28.43;37.08;98816.78;4978919;28;20041;-76
2023/08/15 04:36:46;;;;;;;5.85;3.20;;;;;;;28.62;37.15;98817.50;4979310;28;20104;-76
2023/08/15 04:39:12;;;;;;;4.97;3.00;;;;;;;28.84;36.86;98815.91;4961446;28;20125;-76
2023/08/15 04:41:38;;;;;;;9.50;2.97;;;;;;;29.42;35.68;98819.56;4959685;28;20042;-74
2023/08/15 04:44:04;;;;;;;3.90;2.92;;;;;;;29.92;35.03;98815.44;4959950;28;20101;-76
2023/08/15 04:46:29;;;;;;;7.32;3.20;;;;;;;29.97;35.25;98817.41;4959946;28;20417;-75
2023/08/15 04:48:55;;;;;;;5.80;2.80;;;;;;;30.25;34.80;98815.72;4943435;28;20057;-75
2023/08/15 04:51:20;;;;;;;4.95;3.20;;;;;;;30.31;34.62;98817.44;4959583;28;20038;-76
2023/08/15 04:53:46;;;;;;;7.70;2.95;;;;;;;30.27;35.08;98810.91;4959884;28;20050;-76
2023/08/15 04:56:12;;;;;;;12.13;3.70;;;;;;;30.53;34.84;98804.06;4968546;28;20042;-76
2023/08/15 04:58:38;;;;;;;5.45;3.00;;;;;;;30.96;33.96;98805.28;4994957;28;20038;-76
2023/08/15 05:01:04;;;;;;;7.32;3.42;;;;;;;30.85;34.13;98800.75;4969748;28;20042;-76
2023/08/15 05:03:29;;;;;;;25.35;4.75;;;;;;;30.96;34.33;98807.09;4976249;28;20053;-76
2023/08/15 05:05:55;;;;;;;127.75;12.02;;;;;;;31.06;34.87;98801.06;4961910;28;20040;-76
2023/08/15 05:08:20;;;;;;;156.00;12.38;;;;;;;30.92;34.88;98803.28;4975224;28;20042;-75
2023/08/15 05:10:46;;;;;;;120.60;9.93;;;;;;;31.03;35.08;98807.78;4959087;28;20128;-76
2023/08/15 05:13:11;;;;;;;109.78;14.43;;;;;;;31.13;34.64;98802.50;4954304;28;20450;-75
2023/08/15 05:15:37;;;;;;;55.00;8.35;;;;;;;31.28;34.17;98801.91;4993456;28;20034;-79
2023/08/15 05:18:03;;;;;;;38.08;5.53;;;;;;;31.75;33.74;98803.25;4978185;28;20510;-81
2023/08/15 05:20:28;;;;;;;29.85;5.43;;;;;;;32.20;32.91;98798.59;4978216;28;20042;-79
2023/08/15 05:22:54;;;;;;;72.45;11.75;;;;;;;32.02;33.74;98794.31;4961967;28;20041;-81
2023/08/15 05:25:20;;;;;;;35.70;6.60;;;;;;;31.84;33.70;98807.13;4968749;28;20077;-86
2023/08/15 05:27:45;;;;;;;40.38;6.22;;;;;;;31.83;33.37;98799.28;5015622;28;20045;-87
2023/08/15 05:30:11;;;;;;;51.50;8.82;;;;;;;31.97;33.30;98805.09;4978539;28;20045;-79
2023/08/15 05:32:37;;;;;;;76.03;11.90;;;;;;;32.03;33.70;98810.28;4995087;28;20034;-79
2023/08/15 05:35:03;;;;;;;34.25;7.72;;;;;;;31.83;33.65;98818.16;4978313;28;20045;-79
2023/08/15 05:37:28;;;;;;;23.05;5.53;;;;;;;31.59;33.88;98809.56;4979292;28;20176;-81
2023/08/15 05:39:54;;;;;;;23.60;6.15;;;;;;;31.46;34.12;98808.03;4994993;28;20046;-85
2023/08/15 05:42:20;;;;;;;20.52;5.45;;;;;;;31.27;34.75;98807.56;5024649;28;20034;-84
2023/08/15 05:44:46;;;;;;;13.57;4.28;;;;;;;31.49;33.75;98808.34;4997571;28;20073;-89
2023/08/15 05:47:12;;;;;;;22.83;6.00;;;;;;;31.44;34.06;98805.59;4996131;28;20045;-90
2023/08/15 05:49:37;;;;;;;13.95;4.00;;;;;;;31.29;34.49;98805.41;4981551;28;20048;-81
2023/08/15 05:52:03;;;;;;;16.08;3.90;;;;;;;31.20;34.21;98811.25;4993287;28;20049;-82
2023/08/15 05:54:29;;;;;;;11.25;3.53;;;;;;;31.07;34.89;98806.22;4961382;28;20137;-83
2023/08/15 05:56:55;;;;;;;14.20;3.67;;;;;;;31.02;34.62;98798.06;4977651;28;20489;-81
2023/08/15 05:59:20;;;;;;;13.57;3.67;;;;;;;30.97;34.85;98800.69;4993916;28;20038;-73
2023/08/15 06:01:46;;;;;;;15.18;3.72;;;;;;;31.09;34.58;98804.09;4982012;28;20049;-74
2023/08/15 06:04:11;;;;;;;16.92;3.95;;;;;;;31.19;35.49;98812.31;4974107;28;20474;-77
2023/08/15 06:06:37;;;;;;;18.85;3.65;;;;;;;31.91;34.17;98806.91;4974291;28;20047;-75
2023/08/15 06:09:03;;;;;;;14.02;3.20;;;;;;;32.24;34.25;98805.88;4991092;28;20038;-77
2023/08/15 06:11:29;;;;;;;36.75;5.35;;;;;;;32.26;33.43;98805.63;4989493;28;20568;-73
2023/08/15 06:13:54;;;;;;;77.97;13.48;;;;;;;32.24;33.13;98807.78;4987150;28;20070;-74
2023/08/15 06:16:20;;;;;;;39.28;6.97;;;;;;;32.07;33.16;98803.31;4967642;28;20034;-74
2023/08/15 06:18:45;;;;;;;206.73;22.35;;;;;;;32.06;33.83;98808.97;4981540;28;20101;-72
2023/08/15 06:21:11;;;;;;;70.78;10.38;;;;;;;31.96;33.48;98815.09;4962785;28;20038;-72
2023/08/15 06:23:36;;;;;;;70.43;12.05;;;;;;;31.89;34.12;98806.34;4964980;28;20050;-71
2023/08/15 06:26:02;;;;;;;59.20;8.32;;;;;;;31.81;34.05;98818.44;4973800;28;20037;-75
2023/08/15 06:28:28;;;;;;;42.80;8.02;;;;;;;31.72;34.65;98809.16;4976803;28;20493;-73
2023/08/15 06:30:53;;;;;;;38.95;6.60;;;;;;;31.71;34.81;98812.94;4959272;28;20531;-73
2023/08/15 06:33:19;;;;;;;49.33;6.20;;;;;;;31.69;35.30;98801.56;4976300;28;20109;-73
2023/08/15 06:35:44;;;;;;;28.85;5.00;;;;;;;31.64;34.79;98805.03;4962747;28;20045;-73
2023/08/15 06:38:10;;;;;;;31.55;6.78;;;;;;;31.66;34.36;98811.00;4995497;28;20073;-73
2023/08/15 06:40:35;;;;;;;15.60;4.45;;;;;;;31.62;34.44;98804.47;4962865;28;20033;-72
2023/08/15 06:43:01;;;;;;;22.25;4.30;;;;;;;31.61;34.10;98794.72;4979493;28;20045;-78
2023/08/15 06:45:27;;;;;;;31.17;5.30;;;;;;;31.58;34.74;98813.31;4979687;28;20556;-73
2023/08/15 06:47:52;;;;;;;22.83;5.00;;;;;;;31.47;35.08;98799.69;4991669;28;20046;-73
2023/08/15 06:50:18;;;;;;;14.40;4.88;;;;;;;31.50;34.55;98806.44;4961613;28;20042;-75
2023/08/15 06:52:43;;;;;;;9.07;3.40;;;;;;;31.59;34.46;98813.06;4962541;28;20192;-75
2023/08/15 06:55:09;;;;;;;11.25;3.40;;;;;;;31.62;34.35;98820.66;4946469;28;20037;-76
2023/08/15 06:57:35;;;;;;;8.73;3.28;;;;;;;31.55;35.21;98814.66;4962875;28;20042;-75
2023/08/15 07:00:01;;;;;;;6.18;3.15;;;;;;;31.35;34.84;98820.59;4962681;28;20465;-76
2023/08/15 07:02:27;;;;;;;6.78;2.92;;;;;;;31.27;34.92;98824.53;4962490;28;20050;-76
2023/08/15 07:04:53;;;;;;;8.98;2.90;;;;;;;31.21;35.00;98828.22;4962928;28;20034;-74
2023/08/15 07:07:20;;;;;;;7.20;3.10;;;;;;;31.11;34.91;98820.81;4983646;28;20425;-78
2023/08/15 07:09:46;;;;;;;13.50;3.40;;;;;;;31.02;35.35;98820.44;4998936;28;20396;-83
2023/08/15 07:12:12;;;;;;;8.63;2.97;;;;;;;30.94;36.23;98826.22;4987358;28;20458;-87
2023/08/15 07:14:37;;;;;;;7.20;3.22;;;;;;;30.85;36.45;98820.47;5003274;28;20132;-77
2023/08/15 07:17:03;;;;;;;7.00;3.20;;;;;;;30.88;36.56;98824.50;4981158;28;20030;-77
2023/08/15 07:19:29;;;;;;;13.48;3.65;;;;;;;30.84;36.85;98821.50;4979633;28;20121;-82
2023/08/15 07:21:55;;;;;;;10.10;3.10;;;;;;;30.81;37.77;98826.59;4961510;28;20042;-81
2023/08/15 07:24:21;;;;;;;11.87;3.47;;;;;;;30.75;37.39;98825.69;4978922;28;20104;-76
2023/08/15 07:26:47;;;;;;;10.60;3.40;;;;;;;30.78;37.40;98819.81;4977387;28;20077;-74
2023/08/15 07:29:12;;;;;;;14.95;3.53;;;;;;;30.81;37.21;98813.13;4969216;28;20045;-77
2023/08/15 07:31:38;;;;;;;11.55;3.22;;;;;;;30.88;37.05;98821.00;4981001;28;20096;-79
2023/08/15 07:34:03;;;;;;;11.57;3.58;;;;;;;30.81;37.26;98813.91;5014822;28;20093;-73
2023/08/15 07:36:29;;;;;;;5.90;3.08;;;;;;;30.74;37.10;98810.59;4964280;28;20572;-76
2023/08/15 07:38:55;;;;;;;19.45;10.40;;;;;;;30.74;37.85;98810.59;4996897;28;20038;-74
2023/08/15 07:41:21;;;;;;;20.38;7.07;;;;;;;30.76;38.30;98816.53;4997729;28;20038;-75
2023/08/15 07:43:47;;;;;;;12.18;3.47;;;;;;;30.75;37.42;98808.72;4981422;28;20096;-82
2023/08/15 07:46:13;;;;;;;11.30;3.15;;;;;;;30.71;37.81;98805.69;4982255;28;20046;-74
2023/08/15 07:48:38;;;;;;;10.15;3.47;;;;;;;30.76;38.12;98813.00;5014684;28;20102;-76
2023/08/15 07:51:04;;;;;;;9.15;3.75;;;;;;;30.86;37.84;98810.47;4981175;28;20042;-75
2023/08/15 07:53:30;;;;;;;10.32;3.47;;;;;;;30.98;37.65;98807.69;4980809;28;20390;-73
2023/08/15 07:55:55;;;;;;;6.60;3.45;;;;;;;31.10;37.22;98807.59;4997209;28;20493;-73
2023/08/15 07:58:21;;;;;;;6.10;3.45;;;;;;;31.20;36.92;98800.47;4980421;28;20045;-73
2023/08/15 08:00:47;;;;;;;8.63;3.13;;;;;;;31.28;37.02;98803.75;4980667;28;20121;-72
2023/08/15 08:03:12;;;;;;;6.68;3.35;;;;;;;31.34;36.77;98808.16;4980687;28;20072;-73
2023/08/15 08:05:38;;;;;;;10.75;3.30;;;;;;;31.36;36.43;98801.47;4996766;28;20040;-73
2023/08/15 08:08:03;;;;;;;11.32;3.03;;;;;;;31.41;36.13;98807.97;4980634;28;20034;-74
2023/08/15 08:10:29;;;;;;;9.23;2.80;;;;;;;31.44;35.89;98810.16;5013873;28;20045;-73
2023/08/15 08:12:54;;;;;;;7.93;2.90;;;;;;;31.45;35.45;98807.22;4980426;28;20038;-74
2023/08/15 08:15:23;;;;;;;7.82;3.30;;;;;;;31.46;35.66;98818.84;4996516;28;20402;-73
2023/08/15 08:17:49;;;;;;;6.70;3.30;;;;;;;31.43;35.18;98805.84;4980455;28;20049;-72
2023/08/15 08:20:17;;;;;;;8.25;3.22;;;;;;;31.50;35.15;98811.84;4980760;28;20038;-72
2023/08/15 08:22:42;;;;;;;7.47;3.20;;;;;;;31.42;35.05;98807.72;5014502;28;20037;-73
2023/08/15 08:25:19;;;;;;;7.38;3.17;;;;;;;31.51;34.98;98824.28;4979683;28;20482;-71
2023/08/15 08:27:45;;;;;;;8.23;3.20;;;;;;;31.51;35.08;98813.50;4979967;28;20041;-73
2023/08/15 08:30:15;;;;;;;9.82;3.60;;;;;;;31.54;35.01;98811.13;4978917;28;20054;-72
2023/08/15 08:32:41;;;;;;;7.55;3.10;;;;;;;31.69;34.89;98809.66;4979490;28;20453;-74
2023/08/15 08:35:07;;;;;;;8.05;3.42;;;;;;;31.82;34.60;98795.78;4980076;28;20037;-74
2023/08/15 08:37:32;;;;;;;7.40;3.30;;;;;;;31.92;34.57;98806.66;4980029;28;20169;-72
2023/08/15 08:39:58;;;;;;;8.73;3.40;;;;;;;31.93;34.31;98802.91;4979214;28;20109;-72
2023/08/15 08:42:23;;;;;;;6.80;3.10;;;;;;;31.95;34.72;98805.34;4996235;28;20112;-73
2023/08/15 08:44:50;;;;;;;8.52;3.28;;;;;;;31.91;34.65;98799.66;4978678;28;20104;-74
2023/08/15 08:47:18;;;;;;;6.88;3.20;;;;;;;31.96;34.29;98798.88;4995392;28;20034;-73
2023/08/15 08:49:43;;;;;;;7.88;2.90;;;;;;;32.01;34.44;98795.41;4978850;28;20516;-74
2023/08/15 08:52:09;;;;;;;6.85;2.95;;;;;;;32.06;34.60;98788.16;4970281;28;20042;-74
2023/08/15 08:54:34;;;;;;;11.20;3.33;;;;;;;32.17;34.26;98791.00;4975264;28;20043;-74
2023/08/15 08:56:59;;;;;;;7.65;3.30;;;;;;;32.66;33.43;98793.53;4959209;28;20071;-73
2023/08/15 08:59:25;;;;;;;8.40;3.28;;;;;;;33.40;32.44;98788.22;4959453;28;20090;-73
2023/08/15 09:01:51;;;;;;;9.70;3.30;;;;;;;33.73;31.76;98786.97;4959555;28;20035;-73
2023/08/15 09:04:22;;;;;;;8.35;3.58;;;;;;;34.02;31.38;98786.50;4976504;28;20045;-72
2023/08/15 09:06:48;;;;;;;14.05;3.67;;;;;;;34.10;31.46;98779.72;4959878;28;20030;-74
2023/08/15 09:09:14;;;;;;;7.85;3.20;;;;;;;34.34;31.34;98785.44;4943692;28;20468;-72
2023/08/15 09:11:39;;;;;;;8.07;3.38;;;;;;;34.88;30.42;98773.94;4975043;28;20379;-72
2023/08/15 09:14:05;;;;;;;13.85;3.40;;;;;;;35.09;30.49;98784.72;4943441;28;20093;-72
2023/08/15 09:16:31;;;;;;;6.72;3.13;;;;;;;34.95;30.49;98779.09;4975493;28;20395;-73
2023/08/15 09:19:00;;;;;;;6.97;3.50;;;;;;;34.88;30.35;98789.41;4959543;28;20057;-73
2023/08/15 09:21:28;;;;;;;10.77;3.45;;;;;;;34.78;30.43;98785.66;4992614;28;20109;-72
2023/08/15 09:23:59;;;;;;;11.20;3.40;;;;;;;34.90;30.16;98792.66;4959683;28;20034;-73
2023/08/15 09:26:25;;;;;;;13.57;3.53;;;;;;;34.93;30.41;98783.97;4975814;28;20076;-74
2023/08/15 09:28:50;;;;;;;11.73;3.10;;;;;;;34.89;30.45;98785.63;4959124;28;20494;-72
2023/08/15 09:31:16;;;;;;;9.05;3.50;;;;;;;34.72;30.71;98786.72;4959658;28;20121;-73
2023/08/15 09:33:41;;;;;;;9.48;3.50;;;;;;;34.62;30.99;98770.50;4959900;28;20041;-72
2023/08/15 09:36:08;;;;;;;10.38;3.20;;;;;;;34.56;30.83;98785.94;4958712;28;20078;-73
2023/08/15 09:38:36;;;;;;;8.10;3.10;;;;;;;34.43;31.00;98778.38;4959334;28;20066;-72
2023/08/15 09:41:01;;;;;;;8.73;3.33;;;;;;;34.24;31.44;98775.41;4959077;28;20038;-75
2023/08/15 09:43:27;;;;;;;5.50;3.28;;;;;;;34.25;31.68;98771.59;4959214;28;20548;-72
2023/08/15 09:45:52;;;;;;;10.05;3.40;;;;;;;34.21;31.66;98776.72;4958931;28;20146;-73
2023/08/15 09:48:19;;;;;;;13.70;3.80;;;;;;;34.12;31.59;98780.25;4975361;28;20062;-73
2023/08/15 09:50:44;;;;;;;7.50;3.78;;;;;;;34.11;31.87;98775.91;4974690;28;20050;-72
2023/08/15 09:53:10;;;;;;;9.38;3.50;;;;;;;34.02;31.76;98784.59;4975551;28;20042;-73
2023/08/15 09:55:36;;;;;;;6.03;3.38;;;;;;;33.86;32.31;98781.06;4958611;28;20043;-73
2023/08/15 09:58:03;;;;;;;11.68;3.83;;;;;;;33.84;32.48;98774.28;4975132;28;20050;-72
2023/08/15 10:00:29;;;;;;;7.13;3.60;;;;;;;33.77;32.43;98774.53;4959189;28;20535;-73
2023/08/15 10:03:01;;;;;;;8.60;3.30;;;;;;;33.74;32.42;98771.56;4959580;28;20261;-74
2023/08/15 10:05:30;;;;;;;9.13;3.50;;;;;;;33.69;32.38;98775.03;4960129;28;20053;-76
2023/08/15 10:07:55;;;;;;;9.10;3.63;;;;;;;33.67;32.41;98778.03;4961532;28;20084;-73
2023/08/15 10:10:21;;;;;;;8.02;3.42;;;;;;;33.66;32.34;98768.25;4980036;28;20041;-72
2023/08/15 10:12:47;;;;;;;8.13;3.47;;;;;;;33.73;32.41;98765.31;4965631;28;20065;-74
2023/08/15 10:15:12;;;;;;;10.55;3.75;;;;;;;33.75;32.03;98765.06;4966170;28;20569;-72
2023/08/15 10:17:38;;;;;;;6.50;3.13;;;;;;;33.77;32.16;98760.22;4966638;28;20120;-73
2023/08/15 10:20:10;;;;;;;10.23;3.70;;;;;;;33.94;32.09;98751.81;4982120;28;20045;-72
2023/08/15 10:22:37;;;;;;;7.30;3.20;;;;;;;34.13;32.01;98761.03;4983843;28;20402;-72
2023/08/15 10:25:27;;;;;;;8.88;3.13;;;;;;;34.43;31.43;98762.91;4981829;28;20045;-72
2023/08/15 10:27:54;;;;;;;7.05;3.28;;;;;;;34.67;30.81;98756.91;5015874;28;20504;-74
2023/08/15 10:30:33;;;;;;;13.70;3.55;;;;;;;34.89;30.21;98753.09;4965874;28;20078;-73
2023/08/15 10:33:14;;;;;;;6.22;3.33;;;;;;;34.87;30.19;98750.66;4982620;28;20500;-72
2023/08/15 10:35:56;;;;;;;7.05;3.33;;;;;;;34.88;30.57;98748.75;4997808;28;20045;-72
2023/08/15 10:38:25;;;;;;;10.10;3.65;;;;;;;34.87;30.46;98747.13;4998865;28;20476;-73
2023/08/15 10:40:51;;;;;;;6.80;3.28;;;;;;;34.95;30.54;98765.53;4982027;28;20038;-73
2023/08/15 10:43:17;;;;;;;9.45;3.05;;;;;;;34.93;30.19;98744.13;4997828;28;20232;-72
2023/08/15 10:45:50;;;;;;;8.02;3.45;;;;;;;35.00;30.35;98743.81;4997878;28;20105;-72
2023/08/15 10:48:16;;;;;;;6.03;3.17;;;;;;;35.07;30.22;98738.88;4966460;28;20114;-72
2023/08/15 10:50:43;;;;;;;9.00;3.10;;;;;;;35.10;29.96;98741.06;4980769;28;20402;-75
2023/08/15 10:53:09;;;;;;;11.30;3.00;;;;;;;35.26;29.74;98730.16;4981972;28;20030;-73
2023/08/15 10:55:37;;;;;;;6.30;2.97;;;;;;;35.37;29.83;98730.91;4980987;28;20104;-72
2023/08/15 10:58:04;;;;;;;8.05;3.08;;;;;;;35.53;29.59;98723.50;4997908;28;20481;-72
2023/08/15 11:00:29;;;;;;;8.07;2.90;;;;;;;35.47;29.52;98736.25;4997512;28;20423;-73
2023/08/15 11:02:55;;;;;;;8.75;3.20;;;;;;;35.48;29.53;98725.13;4997790;28;20038;-71
2023/08/15 11:05:20;;;;;;;8.57;3.13;;;;;;;35.51;29.36;98726.47;4965316;28;20389;-71
2023/08/15 11:07:46;;;;;;;8.10;3.47;;;;;;;35.61;29.24;98725.59;4981247;28;20126;-74
2023/08/15 11:10:12;;;;;;;11.07;3.22;;;;;;;35.66;29.20;98717.41;4997267;28;20041;-73
2023/08/15 11:12:37;;;;;;;9.27;3.33;;;;;;;35.67;29.17;98721.75;4996932;28;20050;-73
2023/08/15 11:15:03;;;;;;;8.73;3.38;;;;;;;35.71;29.07;98711.97;4964418;28;20042;-73
2023/08/15 11:17:29;;;;;;;5.70;3.20;;;;;;;35.65;28.88;98721.22;4964459;28;20045;-73
2023/08/15 11:19:54;;;;;;;14.68;3.90;;;;;;;35.62;28.93;98705.50;4981703;28;20065;-72
2023/08/15 11:22:20;;;;;;;10.55;3.53;;;;;;;35.61;28.86;98712.03;4965347;28;20038;-73
2023/08/15 11:24:50;;;;;;;8.73;3.60;;;;;;;35.56;28.84;98717.50;4960898;28;20120;-72
2023/08/15 11:27:16;;;;;;;8.15;3.28;;;;;;;35.50;29.08;98719.41;4961678;28;20112;-74